createdAt,value
2023-06-29T05:12:59.513Z,97624.84
2023-06-29T05:15:26.246Z,97615.13
2023-06-29T05:17:54.005Z,97638.44
2023-06-29T05:20:20.928Z,97637.59
2023-06-29T05:22:47.543Z,97637.94
2023-06-29T05:25:15.891Z,97610.41
2023-06-29T05:27:42.861Z,97634.56
2023-06-29T05:30:10.121Z,97635.53
2023-06-29T05:32:37.712Z,97629.56
2023-06-29T05:35:04.969Z,97590.63
2023-06-29T05:37:32.075Z,97629.91
2023-06-29T05:39:58.746Z,97618.53
2023-06-29T05:42:25.681Z,97619.41
2023-06-29T05:44:53.589Z,97606.13
2023-06-29T05:47:20.428Z,97611.72
2023-06-29T05:49:47.097Z,97610.88
2023-06-29T05:52:13.804Z,97622.47
2023-06-29T05:54:40.655Z,97596.00
2023-06-29T05:57:07.862Z,97621.81
2023-06-29T05:59:34.522Z,97619.28
2023-06-29T06:02:01.195Z,97595.53
2023-06-29T06:04:27.886Z,97620.59
2023-06-29T06:06:57.053Z,97607.28
2023-06-29T06:09:26.713Z,97609.97
2023-06-29T06:11:53.426Z,97605.59
2023-06-29T06:14:20.737Z,97588.84
2023-06-29T06:25:51.709Z,97621.72
2023-06-29T06:32:40.184Z,97608.53
2023-06-29T06:35:09.248Z,97589.00
2023-06-29T06:42:02.021Z,97554.44
2023-06-29T06:44:29.205Z,97615.69
2023-06-29T06:46:55.938Z,97595.28
2023-06-29T06:49:22.831Z,97610.38
2023-06-29T06:51:50.300Z,97614.81
2023-06-29T06:54:17.377Z,97591.72
2023-06-29T07:05:07.221Z,97589.00
2023-06-29T07:07:34.019Z,97605.91
2023-06-29T07:10:00.767Z,97596.97
2023-06-29T07:12:27.409Z,97590.75
2023-06-29T07:14:54.119Z,97602.22
2023-06-29T07:17:20.846Z,97590.66
2023-06-29T07:24:25.102Z,97538.25
2023-06-29T07:26:54.890Z,97554.13
2023-06-29T07:29:21.505Z,97594.91
2023-06-29T07:32:51.760Z,97595.88
2023-06-29T07:35:18.565Z,97585.22
2023-06-29T07:37:45.200Z,97578.00
2023-06-29T07:44:26.273Z,97573.38
2023-06-29T07:51:11.829Z,97583.16
2023-06-29T07:53:38.463Z,97576.53
2023-06-29T07:56:05.445Z,97555.25
2023-06-29T08:02:58.768Z,97566.59
2023-06-29T08:07:55.191Z,97572.41
2023-06-29T08:15:06.130Z,97567.06
2023-06-29T08:22:04.595Z,97566.38
2023-06-29T08:24:31.312Z,97555.97
2023-06-29T08:27:00.025Z,97554.13
2023-06-29T08:29:26.764Z,97566.31
2023-06-29T08:36:20.774Z,97544.03
2023-06-29T08:38:49.671Z,97541.03
2023-06-29T08:41:17.074Z,97554.75
2023-06-29T08:48:06.889Z,97511.41
2023-06-29T08:50:35.606Z,97539.81
2023-06-29T08:53:03.839Z,97521.09
2023-06-29T08:55:30.776Z,97534.28
2023-06-29T08:57:57.508Z,97528.78
2023-06-29T09:00:42.195Z,97532.16
2023-06-29T09:03:11.993Z,97521.66
2023-06-29T09:05:38.817Z,97536.59
2023-06-29T09:08:06.169Z,97521.91
2023-06-29T09:10:39.407Z,97525.63
2023-06-29T09:13:06.937Z,97510.38
2023-06-29T09:15:33.665Z,97519.78
2023-06-29T09:18:22.093Z,97518.44
2023-06-29T09:23:32.072Z,97517.28
2023-06-29T09:25:58.863Z,97511.56
2023-06-29T09:28:27.277Z,97509.91
2023-06-29T09:30:54.353Z,97507.88
2023-06-29T09:34:04.971Z,97509.03
2023-06-29T10:23:46.558Z,97453.53
2023-06-29T10:26:14.193Z,97437.91
2023-06-29T10:28:41.699Z,97444.25
2023-06-29T10:31:08.398Z,97433.66
2023-06-29T10:33:46.815Z,97444.28
2023-06-29T10:36:14.981Z,97443.88
2023-06-29T10:38:41.851Z,97442.63
2023-06-29T10:41:08.514Z,97433.13
2023-06-29T10:48:02.499Z,97397.56
2023-06-29T11:10:43.613Z,97416.84
2023-06-29T11:13:11.100Z,97396.25
2023-06-29T11:33:34.419Z,97392.25
2023-06-29T11:37:04.197Z,97384.31
2023-06-29T11:40:53.687Z,97391.53
2023-06-29T11:43:54.658Z,97364.56
2023-06-29T11:51:00.382Z,97351.38
2023-06-29T11:53:27.330Z,97369.50
2023-06-29T11:55:55.439Z,97363.97
2023-06-29T12:11:59.388Z,97361.19
2023-06-29T12:14:36.047Z,97338.47
2023-06-29T12:39:26.550Z,97295.94
2023-06-29T12:41:53.542Z,97321.16
2023-06-29T12:44:20.164Z,97294.25
2023-06-29T12:46:46.897Z,97313.88
2023-06-29T12:49:13.707Z,97299.38
2023-06-29T12:51:40.329Z,97296.53
2023-06-29T12:54:11.396Z,97303.50
2023-06-29T12:56:39.366Z,97283.53
2023-06-29T12:59:06.041Z,97283.56
2023-06-29T13:01:32.701Z,97286.94
2023-06-29T13:08:36.440Z,97292.59
2023-06-29T13:11:03.331Z,97302.88
2023-06-29T13:13:31.221Z,97291.78
2023-06-29T13:15:57.861Z,97276.00
2023-06-29T13:18:27.586Z,97297.22
2023-06-29T13:20:54.218Z,97280.53
2023-06-29T13:23:20.909Z,97287.81
2023-06-29T13:25:47.781Z,97270.34
2023-06-29T13:28:14.976Z,97282.78
2023-06-29T13:30:42.521Z,97275.63
2023-06-29T13:33:10.154Z,97270.38
2023-06-29T13:35:37.019Z,97276.75
2023-06-29T13:38:03.641Z,97260.56
2023-06-29T13:40:30.411Z,97280.41
2023-06-29T13:42:59.412Z,97275.03
2023-06-29T13:45:26.963Z,97255.47
2023-06-29T13:48:01.749Z,97257.69
2023-06-29T13:50:40.868Z,97260.75
2023-06-29T13:53:08.347Z,97261.53
2023-06-29T13:55:35.061Z,97253.41
2023-06-29T13:58:01.839Z,97245.19
2023-06-29T14:00:28.715Z,97237.59
2023-06-29T14:02:55.643Z,97246.25
2023-06-29T14:05:22.416Z,97241.38
2023-06-29T14:07:49.095Z,97252.22
2023-06-29T14:10:15.715Z,97235.63
2023-06-29T14:12:42.356Z,97248.53
2023-06-29T14:15:09.334Z,97236.25
2023-06-29T14:17:37.163Z,97246.13
2023-06-29T14:20:04.601Z,97240.88
2023-06-29T14:22:31.697Z,97250.16
2023-06-29T14:25:01.013Z,97242.59
2023-06-29T14:27:27.909Z,97236.22
2023-06-29T14:29:54.776Z,97241.94
2023-06-29T14:32:21.597Z,97251.78
2023-06-29T14:34:49.545Z,97230.97
2023-06-29T14:37:16.537Z,97228.56
2023-06-29T14:39:43.355Z,97221.66
2023-06-29T14:42:10.358Z,97217.81
2023-06-29T14:44:37.173Z,97212.75
2023-06-29T14:47:04.019Z,97219.47
2023-06-29T14:49:30.812Z,97216.13
2023-06-29T14:51:57.471Z,97214.56
2023-06-29T14:54:24.390Z,97218.41
2023-06-29T14:56:51.068Z,97217.59
2023-06-29T14:59:17.757Z,97196.00
2023-06-29T15:01:46.768Z,97205.59
2023-06-29T15:04:13.456Z,97202.41
2023-06-29T15:06:40.194Z,97188.56
2023-06-29T15:09:08.556Z,97189.06
2023-06-29T15:11:36.127Z,97188.06
2023-06-29T15:14:02.776Z,97203.84
2023-06-29T15:16:30.711Z,97184.69
2023-06-29T15:19:00.855Z,97181.81
2023-06-29T15:21:28.016Z,97172.66
2023-06-29T15:23:55.117Z,97187.47
2023-06-29T15:26:24.019Z,97182.38
2023-06-29T15:28:51.120Z,97173.81
2023-06-29T15:31:17.861Z,97179.09
2023-06-29T15:33:44.675Z,97177.41
2023-06-29T15:36:11.307Z,97180.44
2023-06-29T15:38:38.385Z,97159.63
2023-06-29T15:41:05.089Z,97172.50
2023-06-29T15:43:32.205Z,97152.50
2023-06-29T15:46:01.991Z,97169.63
2023-06-29T15:48:28.843Z,97167.44
2023-06-29T15:50:55.722Z,97146.34
2023-06-29T15:53:22.560Z,97153.63
2023-06-29T15:55:49.260Z,97130.84
2023-06-29T15:58:15.989Z,97133.44
2023-06-29T16:00:42.736Z,97140.00
2023-06-29T16:03:09.477Z,97143.47
2023-06-29T16:05:36.207Z,97131.81
2023-06-29T16:08:03.385Z,97144.13
2023-06-29T16:10:30.221Z,97126.44
2023-06-29T16:12:57.052Z,97127.91
2023-06-29T16:15:23.734Z,97116.47
2023-06-29T16:17:50.526Z,97128.69
2023-06-29T16:20:17.348Z,97125.38
2023-06-29T16:22:44.148Z,97114.16
2023-06-29T16:25:10.885Z,97122.25
2023-06-29T16:27:37.525Z,97109.06
2023-06-29T16:30:04.673Z,97106.75
2023-06-29T16:32:31.722Z,97110.47
2023-06-29T16:34:58.606Z,97098.19
2023-06-29T16:37:25.487Z,97088.84
2023-06-29T16:39:52.615Z,97087.44
2023-06-29T16:42:19.243Z,97095.88
2023-06-29T16:44:45.877Z,97102.75
2023-06-29T16:47:12.580Z,97112.28
2023-06-29T16:49:40.531Z,97106.50
2023-06-29T16:52:08.517Z,97083.00
2023-06-29T16:54:35.816Z,97086.22
2023-06-29T16:57:02.686Z,97079.50
2023-06-29T16:59:29.334Z,97096.44
2023-06-29T17:01:57.481Z,97088.09
2023-06-29T17:04:25.812Z,97087.97
2023-06-29T17:06:52.636Z,97075.84
2023-06-29T17:09:19.371Z,97084.56
2023-06-29T17:11:46.319Z,97082.47
2023-06-29T17:14:13.093Z,97067.34
2023-06-29T17:16:40.090Z,97088.47
2023-06-29T17:19:07.103Z,97082.72
2023-06-29T17:21:33.749Z,97079.66
2023-06-29T17:24:01.723Z,97072.94
2023-06-29T17:26:28.802Z,97087.84
2023-06-29T17:28:55.687Z,97084.09
2023-06-29T17:31:22.435Z,97095.19
2023-06-29T17:33:54.926Z,97087.72
2023-06-29T17:36:23.373Z,97089.91
2023-06-29T17:38:50.241Z,97090.50
2023-06-29T17:41:16.911Z,97069.31
2023-06-29T17:43:43.552Z,97074.00
2023-06-29T17:46:10.949Z,97085.59
2023-06-29T17:48:37.722Z,97076.63
2023-06-29T17:51:15.313Z,97076.63
2023-06-29T17:53:43.853Z,97090.19
2023-06-29T17:56:11.613Z,97072.81
2023-06-29T17:58:38.642Z,97079.34
2023-06-29T18:01:05.250Z,97086.03
2023-06-29T18:03:32.149Z,97083.84
2023-06-29T18:05:59.087Z,97082.47
2023-06-29T18:08:25.731Z,97089.25
2023-06-29T18:10:52.359Z,97093.72
2023-06-29T18:13:19.009Z,97082.69
2023-06-29T18:15:46.345Z,97080.34
2023-06-29T18:18:13.299Z,97081.28
2023-06-29T18:20:40.136Z,97077.81
2023-06-29T18:23:06.794Z,97086.00
2023-06-29T18:25:33.460Z,97101.44
2023-06-29T18:28:00.211Z,97097.31
2023-06-29T18:30:26.906Z,97057.22
2023-06-29T18:32:53.727Z,97102.31
2023-06-29T18:35:20.369Z,97101.00
2023-06-29T18:37:47.119Z,97089.63
2023-06-29T18:40:14.693Z,97107.19
2023-06-29T18:42:41.842Z,97087.97
2023-06-29T18:45:09.959Z,97077.75
2023-06-29T18:47:36.791Z,97090.19
2023-06-29T18:50:04.887Z,97075.50
2023-06-29T18:52:31.687Z,97080.00
2023-06-29T18:54:58.384Z,97094.41
2023-06-29T18:57:25.082Z,97090.22
2023-06-29T18:59:51.798Z,97092.16
2023-06-29T19:02:18.556Z,97071.22
2023-06-29T19:04:45.266Z,97074.06
2023-06-29T19:07:15.906Z,97089.94
2023-06-29T19:09:42.721Z,97087.72
2023-06-29T19:12:09.681Z,97076.34
2023-06-29T19:14:36.314Z,97080.88
2023-06-29T19:17:03.118Z,97092.59
2023-06-29T19:19:29.793Z,97082.16
2023-06-29T19:21:56.596Z,97083.84
2023-06-29T19:24:23.363Z,97090.28
2023-06-29T19:26:50.321Z,97093.81
2023-06-29T19:29:17.099Z,97093.31
2023-06-29T19:31:44.871Z,97094.38
2023-06-29T19:34:12.539Z,97094.50
2023-06-29T19:36:39.865Z,97108.91
2023-06-29T19:39:06.786Z,97110.75
2023-06-29T19:41:33.614Z,97117.34
2023-06-29T19:44:01.106Z,97108.66
2023-06-29T19:46:27.884Z,97117.53
2023-06-29T19:48:54.880Z,97105.44
2023-06-29T19:51:21.658Z,97130.31
2023-06-29T19:53:48.557Z,97120.88
2023-06-29T19:56:15.381Z,97122.78
2023-06-29T19:58:42.089Z,97116.72
2023-06-29T20:01:08.836Z,97130.06
2023-06-29T20:03:35.608Z,97130.16
2023-06-29T20:06:02.405Z,97122.16
2023-06-29T20:08:29.089Z,97124.19
2023-06-29T20:10:55.736Z,97128.94
2023-06-29T20:13:22.542Z,97128.09
2023-06-29T20:15:49.638Z,97132.75
2023-06-29T20:18:16.604Z,97137.19
2023-06-29T20:20:43.345Z,97144.28
2023-06-29T20:23:11.923Z,97131.19
2023-06-29T20:25:38.796Z,97146.97
2023-06-29T20:28:05.593Z,97142.81
2023-06-29T20:30:32.251Z,97141.41
2023-06-29T20:32:58.941Z,97159.19
2023-06-29T20:35:25.626Z,97150.56
2023-06-29T20:37:52.353Z,97157.75
2023-06-29T20:40:19.075Z,97145.06
2023-06-29T20:42:47.231Z,97161.84
2023-06-29T20:45:14.004Z,97145.19
2023-06-29T20:47:41.500Z,97167.53
2023-06-29T20:50:08.708Z,97156.50
2023-06-29T20:52:35.596Z,97156.53
2023-06-29T20:57:32.688Z,97153.25
2023-06-29T21:03:34.676Z,97112.47
2023-06-29T21:06:01.957Z,97156.63
2023-06-29T21:08:29.792Z,97138.81
2023-06-29T21:10:57.068Z,97146.69
2023-06-29T21:13:24.527Z,97140.66
2023-06-29T21:15:51.429Z,97152.84
2023-06-29T21:18:18.384Z,97146.00
2023-06-29T21:20:45.398Z,97156.66
2023-06-29T21:23:13.535Z,97155.75
